Latest Weather Observations for Narrandera Airport

IDN60801

Issued at 5:05 pm EST Thursday 28 August 2014 (issued every 30 minutes, with the page automatically refreshed every 10 minutes)

About weather observations | Map of weather stations | Latest weather observations for NSW | Other Formats
Station Details ID: 074148 Name: NARRANDERA AIRPORT Lat: -34.70 Lon: 146.51 Height: 145.0 m
Data from the previous 72 hours. | See also: Recent months for locations in New South Wales
Date/Time
EST
Temp
°C
App
Temp
°C
Dew
Point
Rel
Hum
%
Delta-T
°C
Wind Press
QNH
hPa
Press
MSL
hPa
Rain
since 9 am
mm
Dir
 
Spd
km/h
Gust
km/h
Spd
kts
Gust
kts
28/05:00pm 18.0 16.1 2.7 36 7.0 SE 2 11 1 6 1027.2 1027.4 0.0
28/04:30pm 18.2 14.1 2.5 35 7.2 SE 13 17 7 9 1026.9 - 0.0
28/04:00pm 18.8 15.9 4.6 39 6.8 SSE 9 13 5 7 1026.9 1027.1 0.0
28/03:30pm 19.1 15.7 4.1 37 7.2 SE 11 20 6 11 1026.9 - 0.0
28/03:00pm 19.1 16.6 4.5 38 7.0 SE 7 17 4 9 1027.0 1027.2 0.0
28/02:30pm 19.0 16.6 4.4 38 7.0 SW 6 15 3 8 1027.2 - 0.0
28/02:00pm 18.5 15.3 5.0 41 6.5 SE 11 19 6 10 1027.5 1027.7 0.0
28/01:30pm 18.1 15.2 4.7 41 6.5 SSE 9 15 5 8 1027.5 - 0.0
28/01:00pm 18.0 14.3 4.6 41 6.4 SE 13 22 7 12 1027.9 1028.1 0.0
28/12:30pm 18.3 14.7 5.2 42 6.4 E 13 20 7 11 1028.3 - 0.0
28/12:00pm 17.6 14.0 4.9 43 6.1 ENE 13 20 7 11 1028.8 1029.0 0.0
28/11:30am 16.9 13.2 4.6 44 5.9 ENE 13 20 7 11 1029.2 - 0.0
28/11:00am 16.4 11.6 4.4 45 5.6 ENE 19 22 10 12 1029.4 1029.6 0.0
28/10:30am 15.7 12.4 6.2 53 4.6 E 13 17 7 9 1029.6 - 0.0
28/10:00am 14.0 10.9 5.6 57 4.0 ESE 11 17 6 9 1029.7 1029.9 0.0
28/09:30am 12.7 9.6 5.4 61 3.4 ESE 11 13 6 7 1029.7 - 0.0
28/09:00am 11.7 9.1 6.2 69 2.6 E 9 13 5 7 1029.6 1029.8 0.0
28/08:30am 10.5 9.3 6.6 77 1.8 E 2 7 1 4 1029.5 - 0.0
28/08:00am 7.1 6.1 5.6 90 0.7 CALM 0 2 0 1 1029.4 1029.6 0.0
28/07:30am 5.0 3.2 3.7 91 0.5 SE 2 7 1 4 1029.1 - 0.0
28/07:00am 4.1 2.4 2.0 86 0.8 CALM 0 6 0 3 1028.7 1028.9 0.0
28/06:30am 6.0 4.6 3.8 86 0.9 CALM 0 6 0 3 1028.5 - 0.0
28/06:00am 4.8 1.9 2.8 87 0.8 SE 7 9 4 5 1028.1 1028.3 0.0
28/05:30am 5.2 2.4 3.2 87 0.8 SSE 7 9 4 5 1027.8 - 0.0
28/05:00am 5.6 2.9 3.6 87 0.8 SE 7 9 4 5 1027.7 1027.9 0.0
28/04:30am 5.2 2.5 2.7 84 1.0 S 6 7 3 4 1027.6 - 0.0
28/04:00am 5.6 4.1 2.9 83 1.1 CALM 0 2 0 1 1027.6 1027.8 0.0
28/03:30am 5.4 2.6 2.9 84 1.0 E 7 11 4 6 1027.7 - 0.0
28/03:00am 5.4 2.2 3.3 86 0.9 E 9 11 5 6 1027.6 1027.8 0.0
28/02:30am 5.1 2.3 3.0 86 0.9 SE 7 9 4 5 1027.8 - 0.0
28/02:00am 6.1 3.4 3.9 86 0.9 SE 7 9 4 5 1027.8 1028.0 0.0
28/01:30am 6.3 4.9 3.8 84 1.1 CALM 0 0 0 0 1027.8 - 0.0
28/01:00am 6.3 4.6 3.8 84 1.1 ESE 2 7 1 4 1027.7 1027.9 0.0
28/12:30am 6.9 5.8 4.9 87 0.9 CALM 0 0 0 0 1027.7 - 0.0
28/12:00am 6.9 4.5 5.4 90 0.7 SE 7 9 4 5 1027.8 1028.0 0.0
 
Date/Time
EST
Temp
°C
App
Temp
°C
Dew
Point
Rel
Hum
%
Delta-T
°C
Wind Press
QNH
hPa
Press
MSL
hPa
Rain
since 9 am
mm
Dir
 
Spd
km/h
Gust
km/h
Spd
kts
Gust
kts
27/11:30pm 5.6 4.2 3.8 88 0.8 CALM 0 0 0 0 1027.5 - 0.0
27/11:00pm 5.7 4.5 4.7 93 0.4 CALM 0 0 0 0 1027.5 1027.7 0.0
27/10:30pm 5.9 4.7 4.7 92 0.5 CALM 0 0 0 0 1027.5 - 0.0
27/10:00pm 6.3 5.1 4.8 90 0.7 CALM 0 0 0 0 1027.4 1027.6 0.0
27/09:30pm 6.3 4.3 4.6 89 0.7 SE 4 7 2 4 1027.4 - 0.0
27/09:00pm 7.4 6.3 5.2 86 1.0 CALM 0 0 0 0 1027.4 1027.6 0.0
27/08:30pm 8.0 7.0 5.8 86 1.0 CALM 0 0 0 0 1027.2 - 0.0
27/08:00pm 8.8 7.8 5.5 80 1.5 CALM 0 0 0 0 1027.1 1027.3 0.0
27/07:30pm 9.4 8.4 5.4 76 1.8 CALM 0 0 0 0 1026.7 - 0.0
27/07:00pm 11.0 9.1 5.1 67 2.7 ESE 4 6 2 3 1026.4 1026.7 0.0
27/06:30pm 13.1 11.0 6.0 62 3.4 ESE 6 7 3 4 1026.3 - 0.0
27/06:00pm 14.5 12.0 6.6 59 3.8 E 9 11 5 6 1026.1 1026.4 0.0
27/05:30pm 16.1 13.1 6.0 51 4.9 SE 11 13 6 7 1026.0 - 0.0
27/05:00pm 17.9 14.0 5.5 44 6.0 SSE 15 20 8 11 1025.7 1025.9 0.0
27/04:30pm 18.5 15.4 5.4 42 6.4 SE 11 15 6 8 1025.6 - 0.0
27/04:00pm 18.6 14.6 5.1 41 6.5 SSE 15 20 8 11 1025.5 1025.7 0.0
27/03:30pm 19.0 15.4 5.1 40 6.8 SE 13 19 7 10 1025.4 - 0.0
27/03:00pm 18.9 14.0 4.3 38 7.0 SSE 19 28 10 15 1025.5 1025.7 0.0
27/02:30pm 19.8 16.0 5.8 40 7.0 SSE 15 20 8 11 1025.7 - 0.0
27/02:00pm 19.2 16.4 5.3 40 6.8 SE 9 22 5 12 1025.8 1026.0 0.0
27/01:30pm 18.6 15.1 5.5 42 6.4 S 13 20 7 11 1025.9 - 0.0
27/01:00pm 18.8 15.8 6.0 43 6.3 SE 11 20 6 11 1026.2 1026.5 0.0
27/12:30pm 17.7 13.6 4.3 41 6.4 ESE 15 24 8 13 1026.5 - 0.0
27/12:00pm 17.5 13.2 5.1 44 6.0 E 17 24 9 13 1027.2 1027.4 0.0
27/11:30am 17.3 13.6 6.2 48 5.5 E 15 24 8 13 1027.5 - 0.0
27/11:00am 16.8 11.9 5.1 46 5.6 E 20 28 11 15 1027.7 1027.9 0.0
27/10:30am 16.5 11.0 5.8 49 5.2 E 24 30 13 16 1027.7 - 0.0
27/10:00am 15.4 10.0 4.5 48 5.1 E 22 28 12 15 1027.7 1027.9 0.0
27/09:30am 15.2 11.5 6.2 55 4.4 E 15 19 8 10 1027.6 - 0.0
27/09:00am 13.8 11.4 7.1 64 3.3 ESE 9 13 5 7 1027.4 1027.6 0.0
27/08:30am 12.5 9.7 7.0 69 2.7 ESE 11 13 6 7 1027.4 - 0.0
27/08:00am 10.5 7.4 7.2 80 1.6 E 13 20 7 11 1027.2 1027.4 0.0
27/07:30am 6.4 5.5 6.1 98 0.1 CALM 0 4 0 2 1026.9 - 0.0
27/07:00am 4.7 3.4 4.0 95 0.3 CALM 0 0 0 0 1026.6 1026.9 0.0
27/06:30am 5.4 4.2 4.5 94 0.4 CALM 0 0 0 0 1026.1 - 0.0
27/06:00am 5.6 2.7 4.6 93 0.4 SSE 9 11 5 6 1025.9 1026.2 0.0
27/05:30am 6.4 3.7 5.4 93 0.4 SSE 9 11 5 6 1025.7 - 0.0
27/05:00am 5.4 2.8 4.4 93 0.4 SSE 7 9 4 5 1025.8 1026.0 0.0
27/04:30am 5.2 2.5 3.7 90 0.6 SE 7 9 4 5 1025.6 - 0.0
27/04:00am 5.5 2.3 3.3 86 0.9 SSE 9 11 5 6 1025.5 1025.7 0.0
27/03:30am 7.5 6.4 5.3 86 1.0 CALM 0 0 0 0 1025.5 - 0.0
27/03:00am 6.9 5.7 4.4 84 1.1 CALM 0 0 0 0 1025.5 1025.7 0.0
27/02:30am 8.5 5.9 6.0 84 1.1 ESE 9 13 5 7 1025.8 - 0.0
27/02:00am 8.6 5.2 6.1 84 1.1 E 13 15 7 8 1025.8 1026.0 0.0
27/01:30am 9.0 6.1 6.3 83 1.3 ESE 11 15 6 8 1025.9 - 0.0
27/01:00am 9.3 5.6 6.2 81 1.4 ESE 15 17 8 9 1025.9 1026.2 0.0
27/12:30am 9.8 6.1 6.2 78 1.7 ESE 15 17 8 9 1026.0 - 0.0
27/12:00am 11.3 8.0 6.2 71 2.4 E 13 17 7 9 1026.1 1026.4 0.0
 
Date/Time
EST
Temp
°C
App
Temp
°C
Dew
Point
Rel
Hum
%
Delta-T
°C
Wind Press
QNH
hPa
Press
MSL
hPa
Rain
since 9 am
mm
Dir
 
Spd
km/h
Gust
km/h
Spd
kts
Gust
kts
26/11:30pm 13.5 9.1 6.4 62 3.4 E 19 26 10 14 1026.0 - 0.0
26/11:00pm 13.8 8.8 6.4 61 3.6 E 22 32 12 17 1025.8 1026.0 0.0
26/10:30pm 13.7 8.8 6.8 63 3.4 E 22 33 12 18 1025.8 - 0.0
26/10:00pm 11.5 8.4 7.2 75 2.1 E 13 17 7 9 1025.8 1026.0 0.0
26/09:30pm 11.6 8.6 7.7 77 1.9 E 13 19 7 10 1025.7 - 0.0
26/09:00pm 11.5 8.4 7.4 76 2.0 E 13 17 7 9 1025.5 1025.7 0.0
26/08:30pm 12.0 8.5 7.3 73 2.3 E 15 17 8 9 1025.2 - 0.0
26/08:00pm 12.9 9.5 7.8 71 2.5 ESE 15 20 8 11 1024.9 1025.1 0.0
26/07:30pm 13.6 10.2 7.8 68 2.9 ESE 15 20 8 11 1024.7 - 0.0
26/07:00pm 13.2 10.6 7.6 69 2.7 ESE 11 17 6 9 1024.5 1024.7 0.0
26/06:30pm 14.4 11.4 7.9 65 3.3 SE 13 19 7 10 1024.2 - 0.0
26/06:00pm 15.0 11.7 8.0 63 3.5 ESE 15 22 8 12 1024.1 1024.3 0.0
26/05:30pm 16.1 11.8 7.8 58 4.2 ESE 20 28 11 15 1023.8 - 0.0
26/05:00pm 17.2 11.8 8.1 55 4.6 ESE 26 39 14 21 1023.5 1023.7 0.0
26/04:30pm 17.9 14.3 8.2 53 5.0 ESE 17 32 9 17 1023.3 - 0.0
26/04:00pm 17.9 13.5 7.6 51 5.2 ESE 20 28 11 15 1023.3 1023.5 0.0
26/03:30pm 17.9 12.5 7.9 52 5.1 ESE 26 43 14 23 1023.3 - 0.0
26/03:00pm 19.1 14.3 7.5 47 5.9 ESE 22 35 12 19 1023.2 1023.4 0.0
26/02:30pm 18.2 12.9 6.7 47 5.8 SE 24 35 13 19 1023.3 - 0.0
26/02:00pm 18.3 13.4 7.1 48 5.6 SE 22 32 12 17 1023.4 1023.6 0.0
26/01:30pm 17.1 12.9 7.5 53 4.9 SE 19 26 10 14 1023.7 - 0.0
26/01:00pm 18.1 13.6 8.4 53 5.0 ESE 22 32 12 17 1023.8 1024.0 0.0
26/12:30pm 16.9 12.1 7.5 54 4.7 E 22 30 12 16 1024.1 - 0.0
26/12:00pm 16.4 12.7 7.9 57 4.3 SE 17 24 9 13 1024.6 1024.8 0.0
26/11:30am 16.1 12.1 8.1 59 4.1 SE 19 22 10 12 1024.9 - 0.0
26/11:00am 15.6 12.3 7.9 60 3.9 ESE 15 20 8 11 1025.2 1025.4 0.0
26/10:30am 15.6 13.0 9.5 67 3.2 SSE 13 19 7 10 1025.2 - 0.0
26/10:00am 14.3 12.1 9.3 72 2.6 SSE 11 19 6 10 1025.4 1025.6 0.0
26/09:30am 12.7 9.8 8.0 73 2.3 S 13 20 7 11 1025.5 - 0.0
26/09:00am 10.9 8.4 8.1 83 1.4 SSE 11 15 6 8 1025.7 1025.9 8.6
26/08:30am 8.3 6.8 8.3 100 0.0 SSW 6 9 3 5 1025.5 - 8.6
26/08:00am 6.6 5.8 6.5 99 0.0 CALM 0 0 0 0 1025.3 1025.5 8.6
26/07:30am 4.0 2.7 3.9 99 0.0 CALM 0 0 0 0 1025.1 - 8.6
26/07:00am 2.7 1.1 2.6 99 0.0 CALM 0 0 0 0 1024.8 1025.0 8.6
26/06:30am 3.0 1.5 2.9 99 0.0 CALM 0 0 0 0 1024.4 - 8.6
26/06:00am 2.6 1.0 2.5 99 0.0 CALM 0 0 0 0 1024.2 1024.4 8.6
26/05:30am 3.0 1.5 2.9 99 0.0 CALM 0 0 0 0 1024.0 - 8.6
26/05:00am 3.4 2.0 3.3 99 0.0 CALM 0 0 0 0 1023.9 1024.1 8.6
26/04:30am 3.5 2.1 3.4 99 0.0 CALM 0 0 0 0 1023.9 - 8.6
26/04:00am 4.7 3.5 4.6 99 0.0 CALM 0 0 0 0 1023.7 1023.9 8.6
26/03:30am 4.2 2.5 4.1 99 0.0 SSE 2 7 1 4 1023.8 - 8.6
26/03:00am 4.0 1.5 3.9 99 0.0 SE 6 7 3 4 1023.7 1023.9 8.6
26/02:30am 4.0 2.7 3.9 99 0.0 CALM 0 6 0 3 1023.8 - 8.6
26/02:00am 4.4 3.1 4.3 99 0.0 CALM 0 0 0 0 1023.9 1024.1 8.6
26/01:30am 3.8 2.4 3.7 99 0.0 CALM 0 0 0 0 1024.0 - 8.6
26/01:00am 4.3 3.0 4.2 99 0.0 CALM 0 0 0 0 1024.0 1024.2 8.6
26/12:30am 4.8 3.6 4.7 99 0.0 CALM 0 0 0 0 1024.1 - 8.6
26/12:00am 4.9 3.7 4.8 99 0.0 CALM 0 0 0 0 1024.4 1024.6 8.6
 
Date/Time
EST
Temp
°C
App
Temp
°C
Dew
Point
Rel
Hum
%
Delta-T
°C
Wind Press
QNH
hPa
Press
MSL
hPa
Rain
since 9 am
mm
Dir
 
Spd
km/h
Gust
km/h
Spd
kts
Gust
kts
25/11:30pm 4.8 3.6 4.7 99 0.0 CALM 0 0 0 0 1024.6 - 8.6
25/11:00pm 5.0 3.9 4.9 99 0.0 CALM 0 0 0 0 1024.7 1024.9 8.6
25/10:30pm 5.0 3.8 4.7 98 0.1 CALM 0 0 0 0 1024.9 - 8.6
25/10:00pm 4.8 3.6 4.4 97 0.2 CALM 0 0 0 0 1025.0 1025.2 8.6
25/09:30pm 5.3 4.1 4.7 96 0.3 CALM 0 0 0 0 1025.0 - 8.6
25/09:00pm 6.1 5.1 5.5 96 0.3 CALM 0 0 0 0 1025.1 1025.3 8.6
25/08:30pm 6.9 6.1 6.5 97 0.2 CALM 0 0 0 0 1024.8 - 8.6
25/08:00pm 7.2 5.9 6.1 93 0.5 N 2 7 1 4 1024.9 1025.1 8.6
25/07:30pm 9.0 8.1 7.9 93 0.5 W 2 7 1 4 1024.8 - 8.6
25/07:00pm 9.1 7.0 8.3 95 0.4 WNW 9 11 5 6 1024.9 1025.1 8.6
25/06:30pm 9.1 6.9 7.7 91 0.7 NW 9 11 5 6 1024.7 - 8.6
25/06:00pm 10.3 8.8 8.6 89 0.8 N 6 9 3 5 1024.5 1024.7 8.4
25/05:30pm 10.6 9.0 8.2 85 1.2 E 6 9 3 5 1024.4 - 8.4

Other Formats:

Comma delimited format used in spreadsheet applications
http://www.bom.gov.au/fwo/IDN60801/IDN60801.95706.axf

JavaScript Object Notation format (JSON) in row-major order
http://www.bom.gov.au/fwo/IDN60801/IDN60801.95706.json